Chlef Aboubakr Belkaid International Airport

DAOI · Chlef, Algeria

METAR history DAOI · Chlef Aboubakr Belkaid International Airport

Below you see METARs of the last few days. Select a year to browse through older METARs, from the year 2007 onwards.

March 4, 2024

Time Code Weather Temp. Visibility Ceiling Wind METAR/SPECI
06:00
M
8 °C 7 km - 270° 270° 4 kt METAR DAOI 040500Z 27004KT 7000 SCT026 08/08 Q1020
05:00
M
8 °C 7 km - 290° 290° 5 kt METAR DAOI 040400Z 29005KT 7000 FEW023 08/08 Q1019
04:00
M
8 °C 7 km - 280° 280° 3 kt METAR DAOI 040300Z 28003KT 7000 FEW023 08/08 Q1019
03:00
M
9 °C 7 km - 160° 160° 3 kt METAR DAOI 040200Z 16003KT 7000 FEW023 SCT026 09/09 Q1019
02:00
M
9 °C 7 km - 240° 240° 5 kt METAR DAOI 040100Z 24005KT 7000 FEW023 SCT026 09/09 Q1019
01:00
M
10 °C 7 km - 260° 260° 6 kt METAR DAOI 040000Z 26006KT 7000 -RA FEW023 SCT026 10/09 Q1019
00:00
V
9 °C 10 km+ - 260° 260° 6 kt METAR DAOI 032300Z 26006KT 9999 FEW023 09/07 Q1018

March 3, 2024

Time Code Weather Temp. Visibility Ceiling Wind METAR/SPECI
23:00
V
9 °C 10 km+ - 240° 240° 3 kt METAR DAOI 032200Z 24003KT 9999 FEW023 09/07 Q1018
22:00
V
10 °C 10 km+ - 240° 240° 7 kt METAR DAOI 032100Z 24007KT 9999 FEW023 10/07 Q1018
21:00
V
12 °C 10 km+ - 260° 260° 11 kt METAR DAOI 032000Z 26011KT 9999 SCT023 12/06 Q1017
20:00
V
12 °C 10 km+ - 260° 260° 14 kt METAR DAOI 031900Z 26014KT 9999 SCT023 12/06 Q1016
19:00
V
12 °C 10 km+ - 260° 260° 15 kt METAR DAOI 031800Z 26015KT 9999 SCT023 12/05 Q1015
18:00
V
14 °C 10 km+ - 260° 260° 19 kt METAR DAOI 031700Z 26019KT 9999 SCT023 14/04 Q1014
17:00
M
15 °C 10 km+ 2,300 ft 260° 260° 17 kt METAR DAOI 031600Z 26017KT 9999 BKN023 15/05 Q1013
16:00
V
15 °C 10 km+ - 260° 260° 20 kt METAR DAOI 031500Z 26020KT 9999 FEW023 SCT026 15/05 Q1013
15:00
V
16 °C 10 km+ - 240° 240° 20 kt METAR DAOI 031400Z 24020KT 9999 FEW023 SCT026 16/06 Q1013
14:00
V
16 °C 10 km+ - 260° 260° 20 kt METAR DAOI 031300Z 26020KT 9999 FEW023 SCT026 16/04 Q1013
13:00
V
16 °C 10 km+ - 240° 240° 20 - 34 kt METAR DAOI 031200Z 24020G34KT 9999 FEW023 SCT026 16/05 Q1013
12:00
V
14 °C 10 km+ - 220° 220° 8 kt METAR DAOI 031100Z 22008KT 9999 FEW023 SCT026 14/11 Q1013
11:00
V
11 °C 10 km+ - 220° 220° 8 kt METAR DAOI 031000Z 22008KT 9999 FEW023 SCT026 11/10 Q1013
10:00
V
10 °C 10 km+ - 220° 220° 6 kt METAR DAOI 030900Z 22006KT 9999 SCT026 10/10 Q1013
09:00
V
9 °C 10 km+ - 260° 260° 7 kt METAR DAOI 030800Z 26007KT 9999 SCT026 SCT100 09/09 Q1013
08:00
V
9 °C 10 km+ - 290° 290° 8 kt METAR DAOI 030700Z 29008KT 9999 -RA SCT026 SCT100 09/09 Q1011
07:00
V
10 °C 10 km+ - 320° 320° 14 kt METAR DAOI 030600Z 32014KT CAVOK 10/09 Q1010
06:00
V
12 °C 10 km+ - 250° 250° 11 kt METAR DAOI 030500Z 25011KT CAVOK 12/05 Q1008
05:00
V
11 °C 10 km+ - 250° 250° 9 kt METAR DAOI 030400Z 25009KT CAVOK 11/05 Q1009
03:00
V
11 °C 10 km+ - 360° 360° 0 kt METAR DAOI 030200Z 00000KT CAVOK 11/05 Q1010
02:00
V
11 °C 10 km+ - 320° 320° 3 kt METAR DAOI 030100Z 32003KT CAVOK 11/05 Q1011
01:00
V
11 °C 10 km+ - 240° 240° 3 kt METAR DAOI 030000Z 24003KT CAVOK 11/05 Q1011
00:00
V
11 °C 10 km+ - 280° 280° 6 kt METAR DAOI 022300Z 28006KT CAVOK 11/05 Q1011

March 2, 2024

Time Code Weather Temp. Visibility Ceiling Wind METAR/SPECI
23:00
V
11 °C 10 km+ - 260° 260° 5 kt METAR DAOI 022200Z 26005KT CAVOK 11/04 Q1012
22:00
V
12 °C 10 km+ - 360° 360° 0 kt METAR DAOI 022100Z 00000KT CAVOK 12/04 Q1012
21:00
V
12 °C 10 km+ - 200° 200° 4 kt METAR DAOI 022000Z 20004KT CAVOK 12/05 Q1013
20:00
V
14 °C 10 km+ - 250° 250° 7 kt METAR DAOI 021900Z 25007KT CAVOK 14/05 Q1012
19:00
V
15 °C 10 km+ - 240° 240° 9 kt METAR DAOI 021800Z 24009KT CAVOK 15/06 Q1012
18:00
V
17 °C 10 km+ - 250° 250° 12 kt METAR DAOI 021700Z 25012KT 9999 FEW020 SCT233 17/06 Q1011
17:00
V
18 °C 10 km+ - 230° 230° 12 kt METAR DAOI 021600Z 23012KT 9999 FEW020 SCT233 18/07 Q1011
16:00
V
18 °C 10 km+ - 250° 250° 11 kt METAR DAOI 021500Z 25011KT 9999 FEW020 SCT233 18/17 Q1012
15:00
V
17 °C 10 km+ - 250° 250° 10 kt METAR DAOI 021400Z 25010KT 9999 FEW020 SCT233 17/06 Q1014
14:00
V
17 °C 10 km+ - 240° 240° 11 kt METAR DAOI 021300Z 24011KT 9999 FEW020 SCT233 17/06 Q1014
13:00
V
16 °C 10 km+ - 090° 090° 8 kt METAR DAOI 021200Z 09008KT CAVOK 16/04 Q1015
12:00
V
15 °C 10 km+ - 090° 090° 11 kt METAR DAOI 021100Z 09011KT CAVOK 15/06 Q1016
11:00
V
15 °C 10 km+ - 080° 080° 9 kt METAR DAOI 021000Z 08009KT CAVOK 15/08 Q1017
10:00
V
11 °C 10 km+ - 090° 090° 6 kt METAR DAOI 020900Z 09006KT CAVOK 11/05 Q1017
09:00
V
9 °C 10 km+ - 080° 080° 8 kt METAR DAOI 020800Z 08008KT CAVOK 09/04 Q1016
08:00
V
7 °C 10 km+ - 060° 060° 6 kt METAR DAOI 020700Z 06006KT CAVOK 07/03 Q1016
07:00
V
7 °C 10 km+ - 050° 050° 7 kt METAR DAOI 020600Z 05007KT CAVOK 07/03 Q1016
06:00
V
7 °C 10 km+ - 060° 060° 7 kt METAR DAOI 020500Z 06007KT CAVOK 07/03 Q1016
05:00
V
8 °C 10 km+ - 050° 050° 7 kt METAR DAOI 020400Z 05007KT CAVOK 08/M04 Q1016
04:00
V
8 °C 10 km+ - 050° 050° 6 kt METAR DAOI 020300Z 05006KT CAVOK 08/03 Q1016
03:00
V
8 °C 10 km+ - 050° 050° 6 kt METAR DAOI 020200Z 05006KT CAVOK 08/03 Q1017
02:00
V
8 °C 10 km+ - 060° 060° 4 kt METAR DAOI 020100Z 06004KT CAVOK 08/03 Q1018
01:00
V
9 °C 10 km+ - 070° 070° 4 kt METAR DAOI 020000Z 07004KT CAVOK 09/03 Q1018
00:00
V
9 °C 10 km+ - 040° 040° 3 kt METAR DAOI 012300Z 04003KT CAVOK 09/03 Q1018

March 1, 2024

Time Code Weather Temp. Visibility Ceiling Wind METAR/SPECI
23:00
V
10 °C 10 km+ - 050° 050° 5 kt METAR DAOI 012200Z 05005KT CAVOK 10/02 Q1018
22:00
V
9 °C 10 km+ - 360° 360° 5 kt METAR DAOI 012100Z 36005KT CAVOK 09/02 Q1018
21:00
V
11 °C 10 km+ - 360° 360° 0 kt METAR DAOI 012000Z 00000KT CAVOK 11/02 Q1018
20:00
V
12 °C 10 km+ - 090° 090° 3 kt METAR DAOI 011900Z 09003KT CAVOK 12/02 Q1017
19:00
V
13 °C 10 km+ - 320° 320° 4 kt METAR DAOI 011800Z 32004KT CAVOK 13/M00 Q1017
18:00
V
15 °C 10 km+ - 300° 300° 6 kt METAR DAOI 011700Z 30006KT 9999 FEW026 15/M03 Q1017
17:00
V
16 °C 10 km+ - 280° 280° 9 kt METAR DAOI 011600Z 28009KT 9999 FEW026 16/M03 Q1017
16:00
V
16 °C 10 km+ - 270° 270° 11 kt METAR DAOI 011500Z 27011KT 9999 FEW026 16/M02 Q1018
15:00
V
16 °C 10 km+ - 270° 270° 11 kt METAR DAOI 011400Z 27011KT 9999 FEW026 16/M01 Q1018